Time;durP1;ratioP1;P1;durP2;ratioP2;P2;SDS_P1;SDS_P2;PMS_P1;PMS_P2;Temp;Humidity;BMP_temperature;BMP_pressure;BME280_temperature;BME280_humidity;BME280_pressure;Samples;Min_cycle;Max_cycle;Signal;HPM_P1;HPM_P2
2022/03/04 00:01:43;;;;;;;31.97;22.07;;;5.40;99.90;;;;;;5056377;28;20287;-84
2022/03/04 00:04:16;;;;;;;32.83;22.53;;;5.40;99.90;;;;;;5056859;28;20980;-90
2022/03/04 00:06:44;;;;;;;31.97;22.17;;;5.40;99.90;;;;;;5056729;28;20194;-88
2022/03/04 00:09:10;;;;;;;33.17;23.10;;;5.40;99.90;;;;;;5056272;28;20440;-88
2022/03/04 00:11:38;;;;;;;29.07;20.50;;;5.30;99.90;;;;;;5056266;28;20436;-86
2022/03/04 00:14:11;;;;;;;28.13;20.40;;;5.40;99.90;;;;;;5055889;28;20432;-90
2022/03/04 00:16:43;;;;;;;32.03;21.63;;;5.40;99.90;;;;;;5056042;28;20451;-86
2022/03/04 00:19:10;;;;;;;25.17;19.23;;;5.30;99.90;;;;;;5055487;28;20463;-87
2022/03/04 00:21:38;;;;;;;33.77;20.63;;;5.30;99.90;;;;;;5055813;28;20431;-88
2022/03/04 00:24:07;;;;;;;29.60;19.83;;;5.40;99.90;;;;;;5055522;28;20435;-88
2022/03/04 00:26:38;;;;;;;30.60;20.17;;;5.40;99.90;;;;;;5055617;28;20432;-88
2022/03/04 00:29:13;;;;;;;27.57;19.70;;;5.40;99.90;;;;;;5054702;28;20435;-90
2022/03/04 00:31:47;;;;;;;26.33;22.25;;;5.30;99.90;;;;;;5055121;28;20429;-89
2022/03/04 00:34:13;;;;;;;27.63;20.40;;;5.40;99.90;;;;;;5055398;28;20201;-75
2022/03/04 00:36:41;;;;;;;28.50;19.57;;;5.30;99.90;;;;;;5055328;28;20443;-89
2022/03/04 00:39:15;;;;;;;28.27;19.70;;;5.20;99.90;;;;;;5055293;28;20459;-90
2022/03/04 00:41:42;;;;;;;26.53;19.60;;;5.20;99.90;;;;;;5055673;28;20443;-79
2022/03/04 00:44:10;;;;;;;31.17;19.90;;;5.30;99.90;;;;;;5055768;28;20454;-85
2022/03/04 00:46:36;;;;;;;24.97;19.40;;;5.30;99.90;;;;;;5055093;28;20435;-89
2022/03/04 00:49:04;;;;;;;28.30;19.50;;;5.30;99.90;;;;;;5055053;28;20454;-88
2022/03/04 00:51:31;;;;;;;29.73;20.57;;;5.10;99.90;;;;;;5055041;28;20440;-89
2022/03/04 00:54:00;;;;;;;29.40;22.88;;;5.10;99.90;;;;;;5054153;28;20436;-85
2022/03/04 00:56:29;;;;;;;29.87;20.60;;;5.10;99.90;;;;;;5055048;28;20198;-85
2022/03/04 00:59:01;;;;;;;28.90;20.87;;;5.00;99.90;;;;;;5054940;28;20791;-89
2022/03/04 01:01:31;;;;;;;27.20;20.37;;;5.00;99.90;;;;;;5054743;28;20431;-89
2022/03/04 01:03:58;;;;;;;24.73;18.83;;;5.00;99.90;;;;;;5054941;28;20424;-89
2022/03/04 01:06:26;;;;;;;27.93;20.77;;;4.90;99.90;;;;;;5054511;28;20436;-81
2022/03/04 01:08:52;;;;;;;27.67;19.57;;;4.80;99.90;;;;;;5054705;28;20501;-85
2022/03/04 01:11:22;;;;;;;27.63;20.47;;;4.70;99.90;;;;;;5054555;28;20453;-84
2022/03/04 01:13:56;;;;;;;28.27;19.80;;;4.60;99.90;;;;;;5054193;28;20926;-85
2022/03/04 01:16:23;;;;;;;32.85;24.98;;;4.60;99.90;;;;;;5054066;28;20434;-89
2022/03/04 01:18:53;;;;;;;29.47;21.63;;;4.60;99.90;;;;;;5054495;28;20222;-89
2022/03/04 01:21:19;;;;;;;29.37;21.77;;;4.60;99.90;;;;;;5054249;28;20439;-89
2022/03/04 01:23:46;;;;;;;31.23;20.47;;;4.60;99.90;;;;;;5054335;28;20443;-88
2022/03/04 01:26:19;;;;;;;26.10;21.07;;;4.60;99.90;;;;;;5054548;28;20451;-88
2022/03/04 01:28:49;;;;;;;25.37;20.53;;;4.50;99.90;;;;;;5054316;28;20840;-87
2022/03/04 01:31:17;;;;;;;35.10;21.00;;;4.40;99.90;;;;;;5054135;28;20455;-84
2022/03/04 01:33:47;;;;;;;26.43;20.73;;;4.30;99.90;;;;;;5054724;28;20440;-88
2022/03/04 01:36:19;;;;;;;32.87;21.87;;;4.20;99.90;;;;;;5054048;28;20431;-88
2022/03/04 01:38:46;;;;;;;26.53;20.27;;;4.20;99.90;;;;;;5054405;28;20447;-87
2022/03/04 01:41:13;;;;;;;30.93;20.90;;;4.20;99.90;;;;;;5054193;28;20442;-91
2022/03/04 01:43:40;;;;;;;27.83;20.40;;;4.20;99.90;;;;;;5065135;28;20445;-90
2022/03/04 01:46:15;;;;;;;33.07;20.63;;;4.20;99.90;;;;;;5074032;28;20509;-88
2022/03/04 01:48:44;;;;;;;28.17;21.40;;;4.10;99.90;;;;;;5074037;28;20825;-89
2022/03/04 01:51:11;;;;;;;28.70;20.57;;;4.00;99.90;;;;;;5074069;28;20449;-73
2022/03/04 01:53:47;;;;;;;29.87;20.37;;;3.90;99.90;;;;;;5074359;28;20517;-88
2022/03/04 01:56:15;;;;;;;28.33;21.27;;;3.90;99.90;;;;;;5073474;28;20933;-88
2022/03/04 01:58:45;;;;;;;27.27;20.83;;;3.90;99.90;;;;;;5074476;28;20446;-88
2022/03/04 02:01:12;;;;;;;32.23;21.13;;;3.90;99.90;;;;;;5073884;28;20431;-74
2022/03/04 02:03:46;;;;;;;25.40;20.43;;;4.00;99.90;;;;;;5073539;28;20443;-86
2022/03/04 02:06:13;;;;;;;32.30;20.80;;;4.00;99.90;;;;;;5073799;28;20501;-90
2022/03/04 02:08:43;;;;;;;27.57;21.57;;;3.90;99.90;;;;;;5074156;28;20984;-90
2022/03/04 02:11:10;;;;;;;30.07;20.67;;;3.80;99.90;;;;;;5074253;28;20426;-89
2022/03/04 02:13:39;;;;;;;30.33;20.67;;;3.70;99.90;;;;;;5073951;28;20458;-88
2022/03/04 02:16:16;;;;;;;28.77;20.77;;;3.70;99.90;;;;;;5074010;28;20470;-83
2022/03/04 02:18:50;;;;;;;31.23;21.53;;;3.70;99.90;;;;;;5074012;28;20485;-89
2022/03/04 02:21:20;;;;;;;32.67;22.30;;;3.70;99.90;;;;;;5073545;28;20438;-91
2022/03/04 02:23:54;;;;;;;27.07;20.87;;;3.70;99.90;;;;;;5074195;28;20434;-80
2022/03/04 02:26:24;;;;;;;27.87;21.47;;;3.70;99.90;;;;;;5077394;28;20438;-87
2022/03/04 02:28:52;;;;;;;26.30;20.60;;;3.70;99.90;;;;;;5077241;28;20489;-88
2022/03/04 02:31:21;;;;;;;28.03;20.77;;;3.70;99.90;;;;;;5077805;28;20453;-83
2022/03/04 02:33:50;;;;;;;33.43;21.73;;;3.60;99.90;;;;;;5078015;28;20449;-87
2022/03/04 02:36:17;;;;;;;29.33;20.97;;;3.60;99.90;;;;;;5078316;28;20435;-89
2022/03/04 02:38:55;;;;;;;27.33;21.67;;;3.60;99.90;;;;;;5079790;28;20451;-89
2022/03/04 02:41:21;;;;;;;28.23;20.67;;;3.50;99.90;;;;;;5079698;28;20445;-85
2022/03/04 02:43:48;;;;;;;30.07;21.27;;;3.50;99.90;;;;;;5087501;28;20435;-81
2022/03/04 02:46:15;;;;;;;30.70;23.40;;;3.50;99.90;;;;;;5090759;28;20432;-88
2022/03/04 02:48:42;;;;;;;28.93;22.00;;;3.60;99.90;;;;;;5082141;28;20237;-87
2022/03/04 02:51:11;;;;;;;31.50;21.40;;;3.60;99.90;;;;;;5086577;28;20906;-84
2022/03/04 02:53:37;;;;;;;28.90;21.27;;;3.50;99.90;;;;;;5089197;28;20438;-80
2022/03/04 02:56:06;;;;;;;27.60;21.27;;;3.50;99.90;;;;;;5080188;28;20933;-88
2022/03/04 02:58:33;;;;;;;31.33;21.47;;;3.50;99.90;;;;;;5077642;28;20434;-89
2022/03/04 03:01:00;;;;;;;28.03;20.57;;;3.40;99.90;;;;;;5077786;28;20430;-87
2022/03/04 03:03:34;;;;;;;28.87;20.83;;;3.30;99.90;;;;;;5077440;28;20427;-88
2022/03/04 03:06:04;;;;;;;28.43;21.63;;;3.30;99.90;;;;;;5077050;28;20439;-89
2022/03/04 03:08:37;;;;;;;33.63;22.02;;;3.30;99.90;;;;;;5076680;28;20428;-88
2022/03/04 03:11:05;;;;;;;29.47;21.50;;;3.30;99.90;;;;;;5076594;28;20190;-87
2022/03/04 03:13:32;;;;;;;32.20;21.57;;;3.30;99.90;;;;;;5076657;28;20449;-86
2022/03/04 03:15:58;;;;;;;28.33;20.70;;;3.20;99.90;;;;;;5076926;28;20438;-89
2022/03/04 03:18:28;;;;;;;32.63;21.27;;;3.10;99.90;;;;;;5076326;28;20458;-90
2022/03/04 03:20:55;;;;;;;30.80;22.00;;;3.10;99.90;;;;;;5076542;28;20445;-92
2022/03/04 03:23:22;;;;;;;27.27;20.60;;;3.00;99.90;;;;;;5076141;28;20514;-91
2022/03/04 03:25:49;;;;;;;32.90;21.30;;;3.00;99.90;;;;;;5076241;28;20450;-88
2022/03/04 03:28:19;;;;;;;33.57;21.77;;;2.90;99.90;;;;;;5075974;28;20481;-83
2022/03/04 03:30:46;;;;;;;29.10;21.77;;;2.80;99.90;;;;;;5076717;28;20434;-74
2022/03/04 03:33:19;;;;;;;28.03;20.73;;;2.80;99.90;;;;;;5075733;28;20431;-87
2022/03/04 03:35:45;;;;;;;32.50;21.70;;;2.70;99.90;;;;;;5075784;28;20423;-88
2022/03/04 03:38:12;;;;;;;30.27;21.43;;;2.70;99.90;;;;;;5076360;28;20457;-91
2022/03/04 03:40:45;;;;;;;35.80;22.60;;;2.80;99.90;;;;;;5076578;28;20431;-86
2022/03/04 03:43:12;;;;;;;33.27;22.03;;;2.70;99.90;;;;;;5075712;28;20438;-75
2022/03/04 03:45:40;;;;;;;30.70;20.77;;;2.70;99.90;;;;;;5075084;28;20430;-74
2022/03/04 03:48:07;;;;;;;32.03;21.47;;;2.70;99.90;;;;;;5069537;28;20482;-77
2022/03/04 03:50:34;;;;;;;32.90;22.10;;;2.70;99.90;;;;;;5072523;28;21073;-75
2022/03/04 03:53:02;;;;;;;33.73;21.97;;;2.70;99.90;;;;;;5072951;28;20984;-88
2022/03/04 03:55:29;;;;;;;29.57;20.70;;;2.60;99.90;;;;;;5075408;28;20439;-89
2022/03/04 03:57:59;;;;;;;28.70;21.67;;;2.60;99.90;;;;;;5076276;28;20960;-89
2022/03/04 04:00:27;;;;;;;28.53;21.83;;;2.60;99.90;;;;;;5075915;28;20427;-89
2022/03/04 04:03:01;;;;;;;29.13;22.37;;;2.60;99.90;;;;;;5075407;28;20802;-92
2022/03/04 04:05:28;;;;;;;28.60;21.33;;;2.60;99.90;;;;;;5075268;28;20960;-74
2022/03/04 04:07:58;;;;;;;30.20;22.20;;;2.50;99.90;;;;;;5075063;28;20450;-91
2022/03/04 04:10:25;;;;;;;28.33;21.53;;;2.50;99.90;;;;;;5075312;28;20439;-91
2022/03/04 04:12:51;;;;;;;33.80;21.83;;;2.50;99.90;;;;;;5075639;28;20454;-78
2022/03/04 04:15:18;;;;;;;28.47;21.27;;;2.50;99.90;;;;;;5074844;28;20438;-83
2022/03/04 04:17:45;;;;;;;34.27;21.67;;;2.40;99.90;;;;;;5074471;28;20466;-91
2022/03/04 04:20:14;;;;;;;30.80;21.70;;;2.30;99.90;;;;;;5075018;28;20816;-75
2022/03/04 04:22:41;;;;;;;28.17;20.97;;;2.40;99.90;;;;;;5075022;28;20427;-89
2022/03/04 04:25:08;;;;;;;36.93;22.47;;;2.30;99.90;;;;;;5074668;28;20934;-75
2022/03/04 04:27:36;;;;;;;28.10;21.30;;;2.30;99.90;;;;;;5074843;28;20434;-83
2022/03/04 04:30:04;;;;;;;36.93;22.57;;;2.20;99.90;;;;;;5073865;28;20486;-76
2022/03/04 04:32:31;;;;;;;33.00;22.53;;;2.10;99.90;;;;;;5073823;28;20453;-74
2022/03/04 04:34:58;;;;;;;31.50;22.63;;;2.10;99.90;;;;;;5074106;28;20451;-82
2022/03/04 04:37:26;;;;;;;32.10;22.63;;;2.20;99.90;;;;;;5073819;28;20451;-81
2022/03/04 04:39:53;;;;;;;27.83;21.40;;;2.00;99.90;;;;;;5073986;28;20450;-76
2022/03/04 04:42:19;;;;;;;35.10;27.92;;;2.00;99.90;;;;;;5073680;28;20423;-76
2022/03/04 04:44:46;;;;;;;35.20;25.13;;;2.10;99.90;;;;;;5073613;28;20209;-88
2022/03/04 04:47:17;;;;;;;31.37;23.03;;;2.10;99.90;;;;;;5073352;28;20450;-86
2022/03/04 04:49:50;;;;;;;32.37;22.23;;;2.10;99.90;;;;;;5062365;28;20491;-83
2022/03/04 04:52:17;;;;;;;31.17;22.23;;;2.00;99.90;;;;;;5054025;28;20949;-79
2022/03/04 04:54:45;;;;;;;35.03;23.03;;;2.00;99.90;;;;;;5054121;28;20450;-76
2022/03/04 04:57:12;;;;;;;30.70;22.60;;;2.10;99.90;;;;;;5054416;28;20438;-77
2022/03/04 04:59:39;;;;;;;33.77;23.60;;;2.00;99.90;;;;;;5054030;28;20446;-76
2022/03/04 05:02:11;;;;;;;35.50;21.93;;;1.90;99.90;;;;;;5054393;28;20466;-76
2022/03/04 05:04:39;;;;;;;34.70;22.85;;;1.90;99.90;;;;;;5054203;28;20425;-74
2022/03/04 05:07:06;;;;;;;31.47;21.33;;;1.90;99.90;;;;;;5054016;28;20213;-89
2022/03/04 05:09:33;;;;;;;30.57;22.23;;;1.80;99.90;;;;;;5053548;28;21012;-84
2022/03/04 05:12:01;;;;;;;32.50;21.17;;;1.90;99.90;;;;;;5053590;28;20503;-73
2022/03/04 05:14:30;;;;;;;32.73;22.30;;;1.90;99.90;;;;;;5053548;28;20432;-76
2022/03/04 05:16:57;;;;;;;29.53;21.33;;;1.90;99.90;;;;;;5053738;28;20455;-84
2022/03/04 05:19:25;;;;;;;31.20;22.20;;;1.80;99.90;;;;;;5053975;28;20447;-84
2022/03/04 05:21:51;;;;;;;32.20;21.60;;;1.80;99.90;;;;;;5054159;28;20439;-82
2022/03/04 05:24:24;;;;;;;33.33;24.57;;;1.80;99.90;;;;;;5054031;28;20526;-86
2022/03/04 05:26:51;;;;;;;32.47;23.33;;;1.90;99.90;;;;;;5054264;28;20436;-89
2022/03/04 05:29:25;;;;;;;36.83;27.88;;;1.80;99.90;;;;;;5052850;28;20951;-90
2022/03/04 05:31:58;;;;;;;33.17;23.43;;;1.90;99.90;;;;;;5053849;28;20206;-81
2022/03/04 05:34:26;;;;;;;32.67;21.73;;;2.00;99.90;;;;;;5054078;28;20428;-81
2022/03/04 05:36:52;;;;;;;35.50;22.67;;;1.90;99.90;;;;;;5053472;28;20443;-87
2022/03/04 05:39:33;;;;;;;29.70;21.17;;;1.90;99.90;;;;;;5053918;28;20440;-82
2022/03/04 05:42:00;;;;;;;33.57;20.17;;;2.00;99.90;;;;;;5053834;28;20458;-81
2022/03/04 05:44:28;;;;;;;27.67;21.50;;;2.00;99.90;;;;;;5053810;28;20428;-90
2022/03/04 05:46:55;;;;;;;36.80;21.87;;;1.90;99.90;;;;;;5054086;28;20424;-90
2022/03/04 05:49:22;;;;;;;41.73;20.97;;;1.90;99.90;;;;;;5053430;28;20858;-75
2022/03/04 05:51:48;;;;;;;33.93;21.23;;;1.90;99.90;;;;;;5053591;28;20439;-92
2022/03/04 05:54:15;;;;;;;35.27;21.47;;;1.80;99.90;;;;;;5053638;28;20466;-91
2022/03/04 05:56:48;;;;;;;36.20;21.83;;;1.90;99.90;;;;;;5053846;28;20475;-90
2022/03/04 05:59:15;;;;;;;29.60;20.50;;;1.90;99.90;;;;;;5054514;28;20938;-81
2022/03/04 06:01:44;;;;;;;30.33;22.27;;;1.80;99.90;;;;;;5065953;28;20473;-86
2022/03/04 06:04:17;;;;;;;33.73;20.77;;;1.80;99.90;;;;;;5076929;28;20451;-80
2022/03/04 06:06:43;;;;;;;30.17;21.57;;;1.80;99.90;;;;;;5076108;28;20450;-75
2022/03/04 06:09:10;;;;;;;33.63;21.47;;;1.70;99.90;;;;;;5077304;28;20477;-86
2022/03/04 06:11:39;;;;;;;28.67;21.47;;;1.70;99.90;;;;;;5077002;28;20430;-89
2022/03/04 06:14:06;;;;;;;35.70;22.27;;;1.80;99.90;;;;;;5077538;28;20427;-91
2022/03/04 06:16:33;;;;;;;36.97;26.75;;;1.70;99.90;;;;;;5076592;28;20428;-89
2022/03/04 06:19:01;;;;;;;33.13;23.33;;;1.80;99.90;;;;;;5076797;28;20232;-84
2022/03/04 06:21:28;;;;;;;33.43;21.97;;;1.90;99.90;;;;;;5077400;28;20434;-83
2022/03/04 06:24:01;;;;;;;39.90;23.00;;;1.90;99.90;;;;;;5077544;28;20445;-82
2022/03/04 06:26:28;;;;;;;36.80;22.30;;;1.90;99.90;;;;;;5077090;28;20433;-78
2022/03/04 06:28:54;;;;;;;33.83;22.03;;;1.90;99.90;;;;;;5077217;28;20478;-88
2022/03/04 06:31:21;;;;;;;32.90;22.47;;;1.80;99.90;;;;;;5077612;28;20434;-83
2022/03/04 06:33:48;;;;;;;33.50;22.40;;;1.80;99.90;;;;;;5077214;28;20423;-92
2022/03/04 06:36:19;;;;;;;37.17;22.37;;;1.80;99.90;;;;;;5078147;28;20450;-79
2022/03/04 06:38:46;;;;;;;37.87;23.07;;;1.70;99.90;;;;;;5079613;28;20447;-75
2022/03/04 06:41:16;;;;;;;31.83;22.63;;;1.70;99.90;;;;;;5079317;28;20450;-83
2022/03/04 06:43:43;;;;;;;29.50;20.90;;;1.70;99.90;;;;;;5076968;28;20776;-87
2022/03/04 06:46:13;;;;;;;35.37;22.20;;;1.60;99.90;;;;;;5077055;28;20526;-86
2022/03/04 06:48:40;;;;;;;38.30;22.23;;;1.70;99.90;;;;;;5076989;28;20476;-82
2022/03/04 06:51:07;;;;;;;29.77;20.50;;;1.70;99.90;;;;;;5061584;28;20795;-89
2022/03/04 06:53:36;;;;;;;32.23;21.50;;;1.60;99.90;;;;;;5056777;28;20547;-85
2022/03/04 06:56:04;;;;;;;31.63;20.80;;;1.60;99.90;;;;;;5056647;28;20431;-75
2022/03/04 06:58:31;;;;;;;33.73;21.93;;;1.80;99.90;;;;;;5059158;28;20462;-75
2022/03/04 07:00:57;;;;;;;30.10;21.47;;;1.80;99.90;;;;;;5057574;28;20451;-77
2022/03/04 07:03:24;;;;;;;29.87;20.30;;;1.90;99.90;;;;;;5057416;28;20435;-75
2022/03/04 07:05:51;;;;;;;34.45;27.35;;;2.00;99.90;;;;;;5055309;28;20427;-75
2022/03/04 07:08:19;;;;;;;32.33;21.60;;;2.20;99.90;;;;;;5056312;28;20199;-76
2022/03/04 07:10:47;;;;;;;31.57;22.00;;;2.30;99.90;;;;;;5055757;28;20493;-76
2022/03/04 07:13:15;;;;;;;35.93;21.60;;;2.40;99.90;;;;;;5057277;28;20501;-78
2022/03/04 07:15:42;;;;;;;27.10;20.83;;;2.50;99.90;;;;;;5058788;28;20435;-83
2022/03/04 07:18:09;;;;;;;32.67;21.07;;;2.50;99.90;;;;;;5058847;28;20471;-76
2022/03/04 07:20:39;;;;;;;39.10;22.27;;;2.50;99.90;;;;;;5059053;28;20462;-77
2022/03/04 07:23:05;;;;;;;40.00;22.87;;;2.50;99.90;;;;;;5055787;28;20447;-76
2022/03/04 07:25:33;;;;;;;38.00;23.10;;;2.50;99.90;;;;;;5059909;28;20444;-75
2022/03/04 07:28:01;;;;;;;37.78;21.75;;;2.50;99.90;;;;;;5060732;28;20444;-76
2022/03/04 07:30:28;;;;;;;34.23;21.13;;;2.60;99.90;;;;;;5058750;28;20234;-76
2022/03/04 07:32:55;;;;;;;29.73;20.13;;;2.60;99.90;;;;;;5070873;28;20446;-78
2022/03/04 07:35:24;;;;;;;35.33;21.00;;;2.70;99.90;;;;;;5077631;28;20439;-75
2022/03/04 07:37:50;;;;;;;32.93;20.67;;;2.70;99.90;;;;;;5072442;28;20455;-75
2022/03/04 07:40:17;;;;;;;36.00;20.47;;;2.70;99.90;;;;;;5077588;28;20442;-78
2022/03/04 07:42:44;;;;;;;28.27;20.23;;;2.70;99.90;;;;;;5076854;28;20446;-77
2022/03/04 07:45:14;;;;;;;27.80;19.73;;;2.90;99.90;;;;;;5077691;28;20473;-82
2022/03/04 07:47:42;;;;;;;34.90;20.40;;;3.10;99.90;;;;;;5078008;28;20474;-84
2022/03/04 07:50:12;;;;;;;29.73;21.03;;;3.20;99.90;;;;;;5072349;28;20998;-77
2022/03/04 07:52:39;;;;;;;30.55;23.05;;;3.20;99.90;;;;;;5076746;28;20421;-87
2022/03/04 07:55:09;;;;;;;27.97;19.87;;;3.40;99.90;;;;;;5077082;28;20208;-75
2022/03/04 07:57:37;;;;;;;31.40;19.97;;;3.50;99.90;;;;;;5077647;28;20455;-79
2022/03/04 08:00:08;;;;;;;27.90;18.37;;;3.60;99.90;;;;;;5078028;28;20454;-77
2022/03/04 08:02:36;;;;;;;26.43;18.87;;;3.70;99.90;;;;;;5077742;28;20541;-80
2022/03/04 08:05:04;;;;;;;26.17;18.23;;;3.80;99.90;;;;;;5077390;28;20445;-74
2022/03/04 08:07:30;;;;;;;26.73;18.57;;;3.90;99.90;;;;;;5074483;28;20459;-80
2022/03/04 08:09:57;;;;;;;30.10;19.17;;;4.00;99.90;;;;;;5077779;28;20489;-79
2022/03/04 08:12:25;;;;;;;29.27;18.03;;;4.10;99.90;;;;;;5080312;28;20449;-87
2022/03/04 08:14:52;;;;;;;25.77;18.30;;;4.20;99.90;;;;;;5079693;28;20442;-77
2022/03/04 08:17:19;;;;;;;28.10;20.60;;;4.30;99.90;;;;;;5079424;28;20420;-75
2022/03/04 08:19:47;;;;;;;30.00;20.10;;;4.50;99.90;;;;;;5081578;28;20617;-80
2022/03/04 08:22:14;;;;;;;33.40;18.00;;;4.70;99.90;;;;;;5078126;28;20439;-81
2022/03/04 08:24:41;;;;;;;28.33;17.43;;;4.80;99.90;;;;;;5081049;28;20431;-75
2022/03/04 08:27:07;;;;;;;29.37;17.13;;;5.00;99.90;;;;;;5077490;28;20928;-75
2022/03/04 08:29:34;;;;;;;26.07;16.73;;;5.10;99.90;;;;;;5073824;28;20458;-74
2022/03/04 08:32:02;;;;;;;33.97;17.03;;;5.20;99.90;;;;;;5076238;28;20439;-87
2022/03/04 08:34:32;;;;;;;22.97;15.50;;;5.30;99.90;;;;;;5077288;28;20434;-84
2022/03/04 08:37:00;;;;;;;32.27;15.97;;;5.40;99.90;;;;;;5075968;28;20435;-78
2022/03/04 08:39:29;;;;;;;21.73;14.53;;;5.60;99.90;;;;;;5072688;28;20449;-84
2022/03/04 08:41:58;;;;;;;19.33;14.50;;;5.80;99.90;;;;;;5076180;28;20233;-85
2022/03/04 08:44:25;;;;;;;22.60;14.83;;;5.90;99.90;;;;;;5078148;28;20197;-77
2022/03/04 08:46:52;;;;;;;21.33;15.07;;;6.10;99.90;;;;;;5079749;28;20201;-81
2022/03/04 08:49:19;;;;;;;24.17;14.70;;;6.20;99.90;;;;;;5078846;28;20210;-76
2022/03/04 08:51:52;;;;;;;22.43;15.17;;;6.30;99.90;;;;;;5075548;28;20220;-83
2022/03/04 08:54:20;;;;;;;24.07;14.40;;;6.40;99.90;;;;;;5075146;28;20201;-82
2022/03/04 08:56:46;;;;;;;21.67;14.33;;;6.50;99.90;;;;;;5074753;28;20193;-82
2022/03/04 08:59:13;;;;;;;25.23;13.90;;;6.70;99.90;;;;;;5074245;28;20630;-84
2022/03/04 09:01:41;;;;;;;17.97;13.77;;;6.90;99.90;;;;;;5073692;28;20201;-82
2022/03/04 09:04:08;;;;;;;21.23;13.80;;;7.10;99.90;;;;;;5073519;28;20208;-78
2022/03/04 09:06:35;;;;;;;21.13;13.73;;;7.20;99.90;;;;;;5073623;28;20556;-81
2022/03/04 09:09:01;;;;;;;25.83;14.07;;;7.30;99.90;;;;;;5073418;28;20201;-84
2022/03/04 09:11:30;;;;;;;20.00;13.80;;;7.30;99.90;;;;;;5073668;28;20236;-85
2022/03/04 09:13:56;;;;;;;18.20;14.03;;;7.30;99.90;;;;;;5073534;28;20201;-78
2022/03/04 09:16:23;;;;;;;18.70;13.30;;;7.50;99.90;;;;;;5073394;28;20209;-79
2022/03/04 09:18:50;;;;;;;24.03;13.83;;;7.60;99.90;;;;;;5073160;28;20726;-81
2022/03/04 09:21:17;;;;;;;22.23;13.77;;;7.70;99.90;;;;;;5073187;28;20202;-83
2022/03/04 09:23:46;;;;;;;25.93;13.67;;;7.90;99.90;;;;;;5073646;28;20190;-83
2022/03/04 09:26:12;;;;;;;19.17;13.73;;;8.00;99.90;;;;;;5073740;28;20265;-82
2022/03/04 09:28:41;;;;;;;18.67;12.97;;;8.10;99.90;;;;;;5073664;28;20259;-79
2022/03/04 09:31:09;;;;;;;17.88;15.68;;;8.20;99.90;;;;;;5072095;28;20440;-83
2022/03/04 09:33:36;;;;;;;20.30;13.63;;;8.40;99.90;;;;;;5073155;28;20292;-83
2022/03/04 09:36:03;;;;;;;21.23;14.00;;;8.50;99.90;;;;;;5072727;28;20202;-83
2022/03/04 09:38:30;;;;;;;24.87;13.20;;;8.50;99.90;;;;;;5072999;28;20206;-79
2022/03/04 09:40:57;;;;;;;15.93;12.87;;;8.60;99.90;;;;;;5073285;28;20207;-86
2022/03/04 09:43:24;;;;;;;18.83;14.10;;;8.50;99.90;;;;;;5073523;28;20194;-82
2022/03/04 09:45:53;;;;;;;29.57;13.63;;;8.70;99.90;;;;;;5073003;28;20194;-79
2022/03/04 09:48:19;;;;;;;19.03;13.77;;;8.70;99.90;;;;;;5072849;28;20562;-78
2022/03/04 09:50:48;;;;;;;24.67;14.87;;;8.80;99.90;;;;;;5072737;28;20229;-80
2022/03/04 09:53:15;;;;;;;19.33;13.90;;;8.60;99.90;;;;;;5073286;28;20557;-80
2022/03/04 09:55:43;;;;;;;26.67;13.70;;;8.60;99.90;;;;;;5073600;28;20209;-80
2022/03/04 09:58:11;;;;;;;24.20;14.73;;;8.80;99.90;;;;;;5073634;28;20186;-77
2022/03/04 10:00:45;;;;;;;19.27;14.37;;;9.00;99.90;;;;;;5074045;28;20186;-91
2022/03/04 10:03:41;;;;;;;26.57;15.13;;;9.10;99.90;;;;;;5074920;28;20217;-90
2022/03/04 10:06:08;;;;;;;25.23;15.67;;;9.10;99.90;;;;;;5075377;28;20204;-91
2022/03/04 10:08:42;;;;;;;23.77;15.27;;;9.00;99.90;;;;;;5074285;28;20204;-89
2022/03/04 10:11:11;;;;;;;22.73;14.90;;;9.10;99.90;;;;;;5075338;28;20210;-91
2022/03/04 10:13:46;;;;;;;25.47;15.57;;;9.20;99.90;;;;;;5075848;28;20581;-90
2022/03/04 10:16:15;;;;;;;23.00;15.57;;;9.40;99.90;;;;;;5055143;28;20198;-84
2022/03/04 10:19:05;;;;;;;27.63;15.33;;;9.40;99.90;;;;;;5064640;28;20217;-87
2022/03/04 10:21:45;;;;;;;24.53;16.17;;;9.60;99.90;;;;;;5071787;28;20190;-91
2022/03/04 10:24:12;;;;;;;24.60;15.17;;;9.70;99.90;;;;;;5073357;28;20194;-85
2022/03/04 10:26:39;;;;;;;24.67;14.67;;;9.80;99.90;;;;;;5073701;28;20186;-81
2022/03/04 10:29:17;;;;;;;21.13;15.13;;;9.70;99.90;;;;;;5071670;28;20201;-82
2022/03/04 10:32:11;;;;;;;22.03;14.87;;;9.80;99.90;;;;;;5072023;28;20224;-80
2022/03/04 10:34:47;;;;;;;22.53;15.40;;;10.00;99.40;;;;;;5071392;28;20217;-86
2022/03/04 10:37:16;;;;;;;20.52;16.13;;;10.10;98.90;;;;;;5070589;28;20423;-80
2022/03/04 10:39:59;;;;;;;20.00;15.03;;;10.20;98.10;;;;;;5072076;28;20461;-83
2022/03/04 10:42:50;;;;;;;21.83;15.00;;;10.30;98.00;;;;;;5074498;28;20562;-82
2022/03/04 10:45:20;;;;;;;21.77;15.50;;;10.40;97.90;;;;;;5077608;28;20201;-81
2022/03/04 10:47:51;;;;;;;23.37;15.33;;;10.40;98.40;;;;;;5077922;28;20193;-79
2022/03/04 10:50:29;;;;;;;17.07;14.73;;;10.40;98.10;;;;;;5075910;28;20226;-86
2022/03/04 10:52:59;;;;;;;21.10;16.05;;;10.30;97.00;;;;;;5074405;28;20432;-89
2022/03/04 10:55:40;;;;;;;24.30;14.73;;;10.30;96.80;;;;;;5076548;28;20190;-90
2022/03/04 10:58:12;;;;;;;19.50;13.73;;;10.40;97.60;;;;;;5077145;28;20248;-91
2022/03/04 11:00:39;;;;;;;21.00;14.23;;;10.50;98.10;;;;;;5078100;28;20190;-93
2022/03/04 11:03:09;;;;;;;21.53;14.83;;;10.70;98.40;;;;;;5078586;28;20198;-80
2022/03/04 11:05:40;;;;;;;29.17;15.17;;;10.70;97.50;;;;;;5078820;28;20194;-86
2022/03/04 11:08:08;;;;;;;17.10;13.87;;;10.70;97.60;;;;;;5087645;28;20449;-81
2022/03/04 11:10:35;;;;;;;20.60;14.83;;;10.60;96.70;;;;;;5096169;28;20210;-85
2022/03/04 11:13:05;;;;;;;23.20;15.13;;;10.50;96.80;;;;;;5093681;28;20649;-81
2022/03/04 11:15:33;;;;;;;21.13;16.37;;;10.50;97.50;;;;;;5088557;28;20186;-83
2022/03/04 11:18:05;;;;;;;21.37;15.63;;;10.60;97.10;;;;;;5091751;28;20225;-88
2022/03/04 11:20:35;;;;;;;20.50;14.67;;;10.60;97.30;;;;;;5081053;28;20209;-93
2022/03/04 11:23:04;;;;;;;19.73;15.03;;;10.80;97.60;;;;;;5079584;28;20199;-87
2022/03/04 11:25:39;;;;;;;26.37;15.90;;;10.90;97.60;;;;;;5080871;28;20600;-86
2022/03/04 11:28:16;;;;;;;22.13;16.27;;;11.10;97.50;;;;;;5080495;28;20435;-78
2022/03/04 11:30:47;;;;;;;29.87;14.40;;;11.00;97.50;;;;;;5080045;28;20222;-91
2022/03/04 11:33:20;;;;;;;23.43;15.63;;;11.00;97.40;;;;;;5079872;28;20206;-92
2022/03/04 11:35:58;;;;;;;21.30;15.70;;;11.00;98.00;;;;;;5077436;28;20202;-92
2022/03/04 11:38:58;;;;;;;22.57;15.60;;;11.10;97.90;;;;;;5076721;28;20214;-88
2022/03/04 11:41:31;;;;;;;21.80;15.70;;;11.30;97.90;;;;;;5076304;28;20560;-82
2022/03/04 11:43:59;;;;;;;24.17;15.80;;;11.10;97.30;;;;;;5076381;28;20201;-80
2022/03/04 11:46:28;;;;;;;22.37;16.60;;;11.10;97.70;;;;;;5074819;28;20201;-85
2022/03/04 11:49:23;;;;;;;23.20;19.80;;;11.20;97.60;;;;;;5073861;28;20457;-80
2022/03/04 11:52:12;;;;;;;27.47;17.50;;;11.20;97.60;;;;;;5075416;28;20229;-79
2022/03/04 11:54:41;;;;;;;24.10;17.43;;;11.30;98.00;;;;;;5066877;28;20602;-89
2022/03/04 11:57:16;;;;;;;21.83;16.60;;;11.20;97.60;;;;;;5054637;28;20202;-81
2022/03/04 11:59:49;;;;;;;24.23;17.07;;;11.30;97.50;;;;;;5054450;28;20213;-80
2022/03/04 12:02:20;;;;;;;22.17;16.43;;;11.30;98.10;;;;;;5054498;28;20194;-92
2022/03/04 12:04:49;;;;;;;21.37;17.13;;;11.30;98.10;;;;;;5055505;28;20191;-91
2022/03/04 12:07:16;;;;;;;26.95;19.30;;;11.50;98.10;;;;;;5054175;28;20808;-84
2022/03/04 12:09:50;;;;;;;21.37;17.43;;;11.60;98.20;;;;;;5064528;28;21695;-91
2022/03/04 12:12:24;;;;;;;24.87;17.47;;;11.70;97.50;;;;;;5054867;28;20254;-78
2022/03/04 12:14:54;;;;;;;22.17;16.77;;;11.80;97.60;;;;;;5055040;28;20194;-92
2022/03/04 12:17:23;;;;;;;20.60;16.67;;;12.00;98.10;;;;;;5054842;28;20226;-91
2022/03/04 12:19:50;;;;;;;23.07;18.47;;;12.30;98.00;;;;;;5055258;28;20190;-89
2022/03/04 12:22:18;;;;;;;26.60;18.70;;;12.30;97.70;;;;;;5055033;28;20203;-91
2022/03/04 12:24:54;;;;;;;29.80;18.53;;;12.00;96.90;;;;;;5055287;28;20242;-79
2022/03/04 12:27:39;;;;;;;22.73;17.83;;;11.90;97.30;;;;;;5054696;28;20429;-79
2022/03/04 12:30:17;;;;;;;22.97;18.60;;;12.10;97.50;;;;;;5055331;28;20202;-79
2022/03/04 12:32:48;;;;;;;23.00;17.33;;;12.10;97.00;;;;;;5054645;28;20271;-80
2022/03/04 12:35:18;;;;;;;21.40;17.07;;;12.10;97.70;;;;;;5054566;28;20234;-91
2022/03/04 12:37:45;;;;;;;21.00;17.10;;;12.10;98.00;;;;;;5056623;28;20203;-86
2022/03/04 12:40:14;;;;;;;22.67;17.77;;;12.10;98.10;;;;;;5074462;28;20193;-78
2022/03/04 12:42:51;;;;;;;23.23;17.83;;;12.30;97.80;;;;;;5074301;28;20206;-79
2022/03/04 12:45:18;;;;;;;31.00;19.60;;;12.50;97.90;;;;;;5074043;28;20203;-91
2022/03/04 12:47:46;;;;;;;25.20;18.63;;;12.40;97.00;;;;;;5073848;28;20193;-84